Stations météo

Publicité
Karlsruhe/Baden-Baden, Allemagne (10722): Température de l'air & dewpoint: 07.12.2018 11:00:00 - 13.12.2018 11:00:00 (CET)Karlsruhe/Baden-Baden, Allemagne (10722): Vitesse du vent: 07.12.2018 11:00:00 - 13.12.2018 11:00:00 (CET)Karlsruhe/Baden-Baden, Allemagne (10722): Direction du vent: 07.12.2018 11:00:00 - 13.12.2018 11:00:00 (CET)Karlsruhe/Baden-Baden, Allemagne (10722): visibility: 07.12.2018 11:00:00 - 13.12.2018 11:00:00 (CET)
Date & Time tt [°C] td [°C] ff [km/h] ff [knt] dd vv [km]
13.12.2018 11:00:00 1,0 -2,0 26 14 NNE 10
13.12.2018 10:00:00 0,0 -2,0 21 11 NNE 10
13.12.2018 09:00:00 -1,0 -3,0 18 10 NNE 10
13.12.2018 08:00:00 -1,0 -3,0 18 10 NNE 10
13.12.2018 07:00:00 -1,0 -3,0 18 10 NE 10
13.12.2018 06:00:00 -1,0 -3,0 11 6 NNE 10
13.12.2018 05:00:00 -1,0 -3,0 15 8 NE 10
13.12.2018 04:00:00 0,0 -2,0 21 11 NNE 10
13.12.2018 03:00:00 0,0 -2,0 9 5 NNE 10
13.12.2018 02:00:00 0,0 -1,0 9 5 NNE 10
13.12.2018 01:00:00 1,0 -1,0 13 7 NNE 10
13.12.2018 00:00:00 1,0 -1,0 13 7 NE 10
12.12.2018 23:00:00 2,0 0,0 15 8 NE 10
12.12.2018 22:00:00 3,0 1,0 18 10 NNE 10
12.12.2018 21:00:00 3,0 1,0 15 8 NNE 10
12.12.2018 20:00:00 3,0 1,0 13 7 NNE 10
12.12.2018 19:00:00 3,0 1,0 13 7 NNE 10
12.12.2018 18:00:00 3,0 1,0 15 8 NNE 10
12.12.2018 17:00:00 4,0 1,0 13 7 NNE 10
12.12.2018 16:00:00 5,0 1,0 13 7 NNE 10
12.12.2018 15:00:00 4,0 0,0 15 8 NNE 10
12.12.2018 14:00:00 4,0 1,0 13 7 NNE 10
12.12.2018 13:00:00 3,0 2,0 5 3 N 5
12.12.2018 12:00:00 2,0 2,0 5 3 NNE 3,5
12.12.2018 11:00:00 1,0 1,0 2 1 - 1,0
12.12.2018 10:00:00 0,0 0,0 2 1 - 0,2
12.12.2018 09:00:00 -1,0 -1,0 4 2 S 0,2
12.12.2018 08:00:00 -1,0 -1,0 4 2 SSW 0,2
12.12.2018 07:00:00 -1,0 -1,0 4 2 S 1,0
12.12.2018 06:00:00 -2,0 -2,0 4 2 SSW 1,5
12.12.2018 05:00:00 -2,0 -2,0 5 3 SSW 0,5
12.12.2018 04:00:00 -2,0 -2,0 2 1 S 1,0
12.12.2018 03:00:00 -2,0 -2,0 5 3 S 3,2
12.12.2018 02:00:00 -1,0 -2,0 8 4 SSW 1,1
12.12.2018 01:00:00 -1,0 -1,0 2 1 SW 6
12.12.2018 00:00:00 0,0 0,0 4 2 S 10
11.12.2018 23:00:00 1,0 1,0 11 6 S 8
11.12.2018 22:00:00 1,0 0,0 8 4 SSW 9
11.12.2018 21:00:00 2,0 0,0 5 3 WNW 10
11.12.2018 20:00:00 2,0 0,0 8 4 WSW 10
11.12.2018 19:00:00 2,0 0,0 8 4 SW 10
11.12.2018 18:00:00 3,0 0,0 5 3 WSW 10
11.12.2018 17:00:00 3,0 1,0 5 3 WSW 10
11.12.2018 16:00:00 4,0 1,0 9 5 WSW 10
11.12.2018 15:00:00 4,0 1,0 8 4 W 10
11.12.2018 14:00:00 4,0 1,0 11 6 WSW 10
11.12.2018 13:00:00 4,0 1,0 11 6 SW 10
11.12.2018 12:00:00 3,0 2,0 11 6 WSW 10
11.12.2018 11:00:00 3,0 1,0 13 7 SW 10
11.12.2018 10:00:00 3,0 1,0 11 6 S 10
11.12.2018 09:00:00 3,0 1,0 11 6 SW 10
11.12.2018 08:00:00 2,0 1,0 13 7 SW 10
11.12.2018 07:00:00 2,0 1,0 13 7 S 10
11.12.2018 06:00:00 2,0 1,0 11 6 S 10
11.12.2018 05:00:00 3,0 1,0 9 5 SW 10
11.12.2018 04:00:00 4,0 1,0 11 6 WSW 10
11.12.2018 03:00:00 3,0 1,0 11 6 SW 10
11.12.2018 02:00:00 3,0 1,0 9 5 WSW 10
11.12.2018 01:00:00 2,0 2,0 9 5 S 10
11.12.2018 00:00:00 3,0 1,0 11 6 S 10
10.12.2018 23:00:00 4,0 2,0 5 3 W 10
10.12.2018 22:00:00 5,0 3,0 11 6 WSW 10
10.12.2018 21:00:00 4,0 2,0 11 6 SSW 10
10.12.2018 20:00:00 4,0 2,0 15 8 SSW 10
10.12.2018 19:00:00 5,0 3,0 13 7 SSW 10
10.12.2018 18:00:00 5,0 3,0 18 10 S 10
10.12.2018 17:00:00 4,0 2,0 13 7 SSW 10
10.12.2018 16:00:00 6,0 3,0 13 7 WSW 6
10.12.2018 15:00:00 8,0 4,0 9 5 WSW 10
10.12.2018 14:00:00 8,0 2,0 16 9 WSW 10
10.12.2018 13:00:00 8,0 2,0 13 7 W 10
10.12.2018 12:00:00 7,0 2,0 13 7 WSW 10
10.12.2018 11:00:00 7,0 3,0 15 8 SW 10
10.12.2018 10:00:00 6,0 3,0 13 7 WSW 10
10.12.2018 09:00:00 5,0 3,0 13 7 SSW 10
10.12.2018 08:00:00 5,0 2,0 9 5 SW 10
10.12.2018 07:00:00 6,0 3,0 11 6 WSW 10
10.12.2018 06:00:00 7,0 3,0 15 8 WSW 10
10.12.2018 05:00:00 6,0 3,0 15 8 WSW 10
10.12.2018 04:00:00 7,0 3,0 13 7 WSW 10
10.12.2018 03:00:00 6,0 3,0 13 7 SW 10
10.12.2018 02:00:00 6,0 3,0 9 5 WSW 10
10.12.2018 01:00:00 7,0 4,0 13 7 WSW 10
10.12.2018 00:00:00 7,0 4,0 15 8 W 10
09.12.2018 23:00:00 8,0 4,0 15 8 W 10
09.12.2018 22:00:00 8,0 5,0 13 7 WSW 10
09.12.2018 21:00:00 8,0 5,0 15 8 SW 10
09.12.2018 20:00:00 9,0 5,0 11 6 WSW 10
09.12.2018 19:00:00 9,0 5,0 16 9 WSW 10
09.12.2018 18:00:00 9,0 5,0 18 10 WSW 10
09.12.2018 17:00:00 9,0 6,0 18 10 WSW 10
09.12.2018 16:00:00 9,0 6,0 26 14 WSW 10
09.12.2018 15:00:00 9,0 5,0 28 15 WSW 10
09.12.2018 14:00:00 9,0 6,0 22 12 WSW 8
09.12.2018 13:00:00 10,0 5,0 29 16 WSW 10
09.12.2018 12:00:00 10,0 5,0 26 14 SW 10
09.12.2018 11:00:00 9,0 5,0 28 15 WSW 9
09.12.2018 10:00:00 10,0 4,0 26 14 WSW 10
09.12.2018 09:00:00 9,0 4,0 24 13 WSW 10
09.12.2018 08:00:00 9,0 5,0 26 14 WSW 10
09.12.2018 07:00:00 9,0 5,0 26 14 WSW 10
09.12.2018 06:00:00 10,0 5,0 34 18 WSW 10
09.12.2018 05:00:00 9,0 6,0 18 10 SW 10
09.12.2018 04:00:00 9,0 5,0 31 17 WSW 10
09.12.2018 03:00:00 10,0 5,0 35 19 WSW 10
09.12.2018 02:00:00 10,0 7,0 39 21 SSW 10
09.12.2018 01:00:00 10,0 7,0 39 21 SW 10
09.12.2018 00:00:00 9,0 7,0 46 25 SSW 10
08.12.2018 23:00:00 9,0 6,0 42 23 SSW 10
08.12.2018 22:00:00 9,0 6,0 42 23 SSW 10
08.12.2018 21:00:00 8,0 6,0 42 23 SSW 10
08.12.2018 20:00:00 8,0 6,0 41 22 SSW 10
08.12.2018 19:00:00 8,0 6,0 41 22 SSW 10
08.12.2018 18:00:00 8,0 6,0 34 18 SSW 10
08.12.2018 17:00:00 8,0 6,0 29 16 SSW 9
08.12.2018 16:00:00 8,0 5,0 34 18 S 10
08.12.2018 15:00:00 8,0 5,0 35 19 SSW 10
08.12.2018 14:00:00 8,0 5,0 34 18 SSW 10
08.12.2018 13:00:00 8,0 5,0 34 18 SSW 10
08.12.2018 12:00:00 7,0 5,0 39 21 SSW 10
08.12.2018 11:00:00 7,0 4,0 39 21 SSW 9
08.12.2018 10:00:00 7,0 4,0 42 23 SSW 10
08.12.2018 09:00:00 7,0 3,0 37 20 SSW 10
08.12.2018 08:00:00 7,0 3,0 29 16 SSW 10
08.12.2018 07:00:00 7,0 3,0 31 17 SSW 10
08.12.2018 06:00:00 7,0 3,0 24 13 SSW 10
08.12.2018 05:00:00 8,0 3,0 28 15 SW 10
08.12.2018 04:00:00 8,0 2,0 26 14 SW 10
08.12.2018 03:00:00 8,0 3,0 24 13 SW 10
08.12.2018 02:00:00 8,0 3,0 24 13 WSW 10
08.12.2018 01:00:00 8,0 4,0 21 11 SW 10
08.12.2018 00:00:00 9,0 4,0 24 13 SW 10
07.12.2018 23:00:00 9,0 4,0 21 11 WSW 10
07.12.2018 22:00:00 9,0 5,0 18 10 WSW 10
07.12.2018 21:00:00 9,0 6,0 26 14 WSW 9
07.12.2018 20:00:00 11,0 8,0 34 18 SSW 10
07.12.2018 19:00:00 11,0 7,0 29 16 SSW 10
07.12.2018 18:00:00 12,0 7,0 35 19 SSW 10
07.12.2018 17:00:00 12,0 7,0 24 13 SSW 10
07.12.2018 16:00:00 13,0 7,0 24 13 SW 10
07.12.2018 15:00:00 12,0 8,0 26 14 SSW 10
07.12.2018 14:00:00 12,0 9,0 26 14 SSW 10
07.12.2018 13:00:00 12,0 9,0 26 14 SSW 10
07.12.2018 12:00:00 12,0 9,0 35 19 SSW 10
07.12.2018 11:00:00 12,0 9,0 31 17 SSW 10

tt = Température de l'air
td = dewpoint
ff = Vitesse du vent
dd = Direction du vent
vv = visibility

stations d'obs. à proximité